Time;durP1;ratioP1;P1;durP2;ratioP2;P2;SDS_P1;SDS_P2;PMS_P1;PMS_P2;Temp;Humidity;BMP_temperature;BMP_pressure;BME280_temperature;BME280_humidity;BME280_pressure;Samples;Min_cycle;Max_cycle;Signal;HPM_P1;HPM_P2
2023/05/21 00:02:28;;;;;;;5.57;3.77;;;;;;;13.03;78.30;101645.63;5261777;28;20457;-70
2023/05/21 00:05:00;;;;;;;6.13;3.47;;;;;;;12.97;78.87;101641.28;5262673;28;20033;-68
2023/05/21 00:07:32;;;;;;;4.97;3.77;;;;;;;12.90;78.81;101639.63;5262763;28;20492;-70
2023/05/21 00:10:03;;;;;;;4.90;3.60;;;;;;;12.87;79.33;101644.88;5262638;28;20484;-69
2023/05/21 00:12:35;;;;;;;7.50;4.05;;;;;;;12.71;79.88;101638.91;5262483;28;20077;-69
2023/05/21 00:15:07;;;;;;;11.50;4.07;;;;;;;12.72;80.18;101635.41;5262700;28;20033;-70
2023/05/21 00:17:38;;;;;;;7.80;4.20;;;;;;;12.64;80.99;101635.47;5262184;28;20037;-69
2023/05/21 00:20:10;;;;;;;7.80;3.87;;;;;;;12.66;81.26;101632.84;5262545;28;20111;-69
2023/05/21 00:22:42;;;;;;;8.83;5.07;;;;;;;12.61;81.69;101627.66;5262293;28;20025;-70
2023/05/21 00:25:13;;;;;;;7.38;4.10;;;;;;;12.53;82.64;101635.53;5262400;28;20033;-70
2023/05/21 00:27:45;;;;;;;5.83;4.30;;;;;;;12.51;82.58;101625.94;5261317;28;20112;-69
2023/05/21 00:30:16;;;;;;;5.70;4.17;;;;;;;12.44;83.59;101630.38;5263444;28;20036;-68
2023/05/21 00:32:48;;;;;;;6.63;4.53;;;;;;;12.31;83.26;101624.34;5267020;28;20124;-69
2023/05/21 00:35:19;;;;;;;8.83;4.10;;;;;;;12.33;83.75;101620.00;5267114;28;20064;-69
2023/05/21 00:37:50;;;;;;;7.33;5.30;;;;;;;12.29;84.43;101633.97;5267131;28;20033;-69
2023/05/21 00:40:22;;;;;;;7.80;5.43;;;;;;;12.20;84.61;101621.81;5265637;28;20029;-70
2023/05/21 00:42:55;;;;;;;10.30;7.40;;;;;;;12.19;84.80;101624.44;5266421;28;20056;-69
2023/05/21 00:45:28;;;;;;;16.45;9.18;;;;;;;12.20;84.84;101620.94;5266166;28;20021;-69
2023/05/21 00:48:01;;;;;;;14.05;9.02;;;;;;;12.13;84.94;101624.47;5266579;28;20387;-70
2023/05/21 00:50:33;;;;;;;13.93;9.10;;;;;;;12.09;85.44;101626.25;5266539;28;20033;-70
2023/05/21 00:53:08;;;;;;;11.93;10.18;;;;;;;12.08;85.92;101624.50;5266165;28;20130;-69
2023/05/21 00:55:40;;;;;;;10.57;9.57;;;;;;;12.05;85.87;101627.13;5266458;28;20182;-70
2023/05/21 00:58:11;;;;;;;15.67;10.37;;;;;;;12.03;85.66;101618.44;5266196;28;20557;-69
2023/05/21 01:00:43;;;;;;;10.73;9.00;;;;;;;11.98;86.08;101623.69;5266475;28;20041;-69
2023/05/21 01:03:15;;;;;;;13.77;10.38;;;;;;;11.94;86.80;101623.72;5266178;28;20029;-70
2023/05/21 01:05:47;;;;;;;12.50;8.27;;;;;;;11.94;86.84;101623.72;5265827;28;20396;-70
2023/05/21 01:08:20;;;;;;;9.68;7.38;;;;;;;11.80;87.69;101621.13;5266104;28;20029;-70
2023/05/21 01:10:52;;;;;;;9.55;7.00;;;;;;;11.82;87.90;101619.38;5266053;28;20033;-69
2023/05/21 01:13:25;;;;;;;11.32;6.10;;;;;;;11.83;88.06;101622.00;5266078;28;20117;-68
2023/05/21 01:15:58;;;;;;;10.02;6.63;;;;;;;11.71;88.64;101619.41;5266002;28;20048;-69
2023/05/21 01:18:33;;;;;;;7.07;5.43;;;;;;;11.71;88.83;101614.19;5266279;28;20376;-68
2023/05/21 01:21:06;;;;;;;9.80;5.45;;;;;;;11.73;88.93;101608.97;5265674;28;20052;-69
2023/05/21 01:23:38;;;;;;;7.40;5.10;;;;;;;11.72;89.36;101615.06;5263901;28;20055;-69
2023/05/21 01:26:11;;;;;;;9.43;5.60;;;;;;;11.65;89.50;101616.84;5264219;28;20025;-70
2023/05/21 01:28:43;;;;;;;7.25;5.35;;;;;;;11.68;90.03;101612.47;5264588;28;20075;-69
2023/05/21 01:31:40;;;;;;;7.40;4.90;;;;;;;11.70;89.39;101619.44;5265735;28;20419;-68
2023/05/21 01:34:15;;;;;;;7.78;4.78;;;;;;;11.60;89.73;101615.97;5225440;28;20060;-69
2023/05/21 01:36:59;;;;;;;6.82;4.70;;;;;;;11.54;90.50;101610.78;5244503;28;20396;-70
2023/05/21 01:39:37;;;;;;;5.88;4.70;;;;;;;11.55;90.91;101613.38;5243042;28;20030;-69
2023/05/21 01:42:09;;;;;;;7.20;5.22;;;;;;;11.54;90.73;101616.84;5243570;28;20133;-71
2023/05/21 01:44:41;;;;;;;9.80;5.07;;;;;;;11.48;90.78;101609.06;5244765;28;20029;-69
2023/05/21 01:47:14;;;;;;;6.27;4.83;;;;;;;11.51;90.92;101611.66;5244410;28;20041;-69
2023/05/21 01:49:46;;;;;;;10.20;5.28;;;;;;;11.48;91.46;101609.94;5243132;28;20035;-70
2023/05/21 01:52:18;;;;;;;13.30;9.87;;;;;;;11.52;91.11;101605.56;5243944;28;20030;-68
2023/05/21 01:54:50;;;;;;;10.97;6.77;;;;;;;11.44;91.27;101599.50;5244458;28;20057;-68
2023/05/21 01:57:21;;;;;;;8.95;5.90;;;;;;;11.44;91.86;101602.97;5243059;28;20384;-70
2023/05/21 01:59:53;;;;;;;6.83;4.97;;;;;;;11.47;91.65;101605.56;5243933;28;20033;-70
2023/05/21 02:02:24;;;;;;;12.70;6.28;;;;;;;11.57;91.53;101603.78;5244024;28;20029;-69
2023/05/21 02:04:56;;;;;;;6.97;5.50;;;;;;;11.60;91.13;101590.72;5243888;28;20444;-70
2023/05/21 02:07:27;;;;;;;11.73;7.40;;;;;;;11.76;92.12;101596.75;5244413;28;20033;-69
2023/05/21 02:09:59;;;;;;;14.33;10.00;;;;;;;11.74;91.54;101590.69;5244039;28;20040;-69
2023/05/21 02:12:30;;;;;;;11.60;6.07;;;;;;;11.76;91.33;101595.91;5244233;28;20548;-70
2023/05/21 02:15:03;;;;;;;10.13;6.73;;;;;;;11.74;91.03;101590.69;5253606;28;20036;-70
2023/05/21 02:17:34;;;;;;;7.22;4.50;;;;;;;11.79;91.08;101595.88;5264619;28;20078;-69
2023/05/21 02:20:12;;;;;;;6.60;4.70;;;;;;;11.83;91.03;101598.47;5264924;28;20033;-69
2023/05/21 02:22:46;;;;;;;7.30;4.50;;;;;;;11.80;91.00;101601.09;5263125;28;20017;-69
2023/05/21 02:25:21;;;;;;;6.28;4.32;;;;;;;11.71;91.46;101592.44;5264650;28;20021;-70
2023/05/21 02:27:52;;;;;;;8.63;5.20;;;;;;;11.75;91.70;101600.25;5264671;28;20502;-70
2023/05/21 02:30:24;;;;;;;7.33;4.57;;;;;;;11.75;91.68;101602.00;5263438;28;20025;-69
2023/05/21 02:32:57;;;;;;;8.00;4.47;;;;;;;11.87;91.24;101596.72;5263428;28;20025;-69
2023/05/21 02:35:28;;;;;;;7.72;4.43;;;;;;;11.80;91.89;101593.28;5264519;28;20075;-69
2023/05/21 02:38:01;;;;;;;8.67;4.63;;;;;;;11.85;91.83;101593.25;5264490;28;20040;-69
2023/05/21 02:40:33;;;;;;;7.50;4.60;;;;;;;11.93;91.27;101594.09;5264296;28;20033;-70
2023/05/21 02:43:04;;;;;;;5.53;4.20;;;;;;;11.92;91.40;101583.66;5264306;28;20045;-69
2023/05/21 02:45:36;;;;;;;7.33;5.10;;;;;;;12.03;90.98;101589.69;5264230;28;20110;-70
2023/05/21 02:48:07;;;;;;;7.80;4.80;;;;;;;12.03;91.15;101587.94;5263471;28;20499;-70
2023/05/21 02:50:39;;;;;;;6.27;4.70;;;;;;;12.14;90.74;101589.59;5264016;28;20033;-70
2023/05/21 02:53:10;;;;;;;11.97;5.17;;;;;;;12.13;90.62;101590.50;5262628;28;20488;-69
2023/05/21 02:55:42;;;;;;;5.83;4.53;;;;;;;12.09;90.68;101586.16;5263865;28;20033;-68
2023/05/21 02:58:13;;;;;;;5.47;4.90;;;;;;;12.09;91.18;101580.94;5246243;28;20040;-69
2023/05/21 03:00:45;;;;;;;6.17;4.77;;;;;;;12.07;91.38;101578.31;5262633;28;20387;-70
2023/05/21 03:03:16;;;;;;;5.37;4.40;;;;;;;12.01;91.60;101575.75;5263766;28;20676;-69
2023/05/21 03:05:48;;;;;;;8.00;4.93;;;;;;;12.02;91.93;101580.97;5279507;28;20063;-69
2023/05/21 03:08:20;;;;;;;5.83;4.70;;;;;;;11.96;92.28;101581.03;5263004;28;20025;-69
2023/05/21 03:10:51;;;;;;;7.03;4.82;;;;;;;11.95;92.06;101570.59;5263899;28;20064;-70
2023/05/21 03:13:23;;;;;;;8.20;5.10;;;;;;;11.97;92.50;101571.44;5262648;28;20060;-69
2023/05/21 03:15:55;;;;;;;6.43;4.90;;;;;;;11.88;92.80;101574.91;5263640;28;20031;-69
2023/05/21 03:18:27;;;;;;;6.03;4.95;;;;;;;11.86;92.95;101561.91;5263646;28;20025;-69
2023/05/21 03:20:59;;;;;;;7.45;4.97;;;;;;;11.89;93.35;101554.91;5263139;28;20460;-70
2023/05/21 03:23:30;;;;;;;6.73;5.00;;;;;;;11.86;93.63;101566.22;5263575;28;20082;-70
2023/05/21 03:26:02;;;;;;;6.93;5.13;;;;;;;11.88;93.97;101564.47;5262264;28;20037;-70
2023/05/21 03:28:36;;;;;;;9.30;5.10;;;;;;;11.90;93.66;101559.22;5263482;28;20353;-69
2023/05/21 03:31:08;;;;;;;7.13;4.68;;;;;;;11.89;94.07;101561.00;5245910;28;20163;-70
2023/05/21 03:33:39;;;;;;;7.27;5.07;;;;;;;11.83;94.66;101563.63;5262306;28;20048;-70
2023/05/21 03:36:10;;;;;;;8.63;4.80;;;;;;;11.88;94.22;101555.78;5263143;28;20040;-70
2023/05/21 03:38:42;;;;;;;7.77;5.47;;;;;;;11.90;94.45;101561.84;5263239;28;20032;-70
2023/05/21 03:41:13;;;;;;;8.40;5.60;;;;;;;12.00;94.37;101567.06;5261609;28;20021;-69
2023/05/21 03:43:45;;;;;;;6.40;5.43;;;;;;;12.02;94.07;101559.19;5263239;28;20060;-69
2023/05/21 03:46:16;;;;;;;8.67;5.43;;;;;;;12.10;94.67;101561.78;5263168;28;20028;-69
2023/05/21 03:48:48;;;;;;;6.67;5.70;;;;;;;12.12;94.07;101573.06;5263299;28;20108;-70
2023/05/21 03:51:20;;;;;;;6.95;5.53;;;;;;;12.12;93.88;101565.22;5263051;28;20033;-70
2023/05/21 03:53:51;;;;;;;7.07;5.67;;;;;;;12.15;93.75;101573.91;5263290;28;20036;-70
2023/05/21 03:56:22;;;;;;;7.70;5.37;;;;;;;12.12;94.32;101566.09;5263188;28;20040;-70
2023/05/21 03:58:54;;;;;;;6.17;4.83;;;;;;;12.15;93.75;101560.00;5263354;28;20104;-68
2023/05/21 04:01:27;;;;;;;7.13;5.77;;;;;;;12.11;93.88;101558.28;5263213;28;20029;-69
2023/05/21 04:03:58;;;;;;;9.80;5.50;;;;;;;12.10;93.95;101561.78;5262502;28;20029;-70
2023/05/21 04:06:29;;;;;;;9.93;5.33;;;;;;;12.11;94.34;101558.28;5262053;28;20524;-70
2023/05/21 04:09:01;;;;;;;7.60;4.93;;;;;;;12.07;94.44;101562.66;5260917;28;20476;-69
2023/05/21 04:11:32;;;;;;;10.53;6.60;;;;;;;12.09;94.58;101560.91;5262373;28;20040;-70
2023/05/21 04:14:04;;;;;;;8.30;4.83;;;;;;;12.08;94.42;101564.41;5261106;28;20041;-70
2023/05/21 04:16:37;;;;;;;7.27;5.70;;;;;;;12.06;94.73;101565.28;5262585;28;20473;-70
2023/05/21 04:19:08;;;;;;;8.25;6.30;;;;;;;12.04;94.98;101571.41;5262436;28;20408;-71
2023/05/21 04:21:40;;;;;;;8.83;5.63;;;;;;;12.04;95.04;101560.06;5262354;28;20064;-69
2023/05/21 04:24:12;;;;;;;8.45;5.95;;;;;;;12.08;95.34;101567.00;5262261;28;20055;-70
2023/05/21 04:26:43;;;;;;;6.60;5.17;;;;;;;12.07;95.32;101569.63;5262380;28;20064;-70
2023/05/21 04:29:20;;;;;;;9.03;5.50;;;;;;;12.12;95.13;101570.47;5262398;28;20025;-68
2023/05/21 04:31:51;;;;;;;9.73;6.03;;;;;;;12.07;95.16;101565.25;5262466;28;20037;-69
2023/05/21 04:34:22;;;;;;;6.87;5.23;;;;;;;12.13;95.11;101573.06;5262215;28;20029;-69
2023/05/21 04:36:55;;;;;;;7.07;5.50;;;;;;;12.17;95.06;101573.91;5262173;28;20061;-69
2023/05/21 04:39:27;;;;;;;9.18;5.63;;;;;;;12.15;95.48;101571.31;5262237;28;20444;-70
2023/05/21 04:41:59;;;;;;;11.23;5.28;;;;;;;12.15;95.47;101575.66;5262099;28;20076;-69
2023/05/21 04:44:30;;;;;;;8.57;5.47;;;;;;;12.18;95.85;101571.28;5262403;28;20033;-70
2023/05/21 04:47:01;;;;;;;8.37;5.53;;;;;;;12.20;95.72;101569.56;5262148;28;20036;-69
2023/05/21 04:49:33;;;;;;;7.70;5.93;;;;;;;12.20;95.36;101573.88;5261906;28;20116;-69
2023/05/21 04:52:05;;;;;;;6.80;5.32;;;;;;;12.24;95.09;101575.63;5261752;28;20071;-69
2023/05/21 04:54:37;;;;;;;7.60;5.43;;;;;;;12.25;95.23;101581.69;5262127;28;20124;-69
2023/05/21 04:57:09;;;;;;;;;;;;;;;12.36;94.08;101579.88;5262413;28;20116;-69
2023/05/21 04:59:42;;;;;;;9.07;6.43;;;;;;;12.28;95.54;101576.47;5262053;28;20000;-69
2023/05/21 05:02:13;;;;;;;9.82;6.45;;;;;;;12.32;95.27;101586.88;5261899;28;20043;-69
2023/05/21 05:04:45;;;;;;;7.03;5.60;;;;;;;12.32;95.11;101583.41;5262073;28;20468;-70
2023/05/21 05:07:16;;;;;;;10.40;5.93;;;;;;;12.38;95.43;101584.22;5262270;28;20032;-69
2023/05/21 05:09:48;;;;;;;10.00;6.20;;;;;;;12.42;95.54;101581.59;5261857;28;20090;-69
2023/05/21 05:12:19;;;;;;;10.37;6.23;;;;;;;12.48;95.75;101581.56;5261921;28;20029;-69
2023/05/21 05:14:50;;;;;;;12.30;6.60;;;;;;;12.51;95.15;101568.41;5261630;28;20047;-68
2023/05/21 05:17:23;;;;;;;7.07;6.27;;;;;;;12.58;94.99;101563.13;5262973;28;20567;-69
2023/05/21 05:19:54;;;;;;;7.40;6.30;;;;;;;12.60;94.71;101563.13;5264297;28;20064;-70
2023/05/21 05:22:26;;;;;;;8.83;6.37;;;;;;;12.69;94.12;101565.66;5265304;28;20500;-69
2023/05/21 05:24:57;;;;;;;8.23;6.33;;;;;;;12.76;94.20;101569.09;5265608;28;20029;-69
2023/05/21 05:27:29;;;;;;;7.37;6.43;;;;;;;12.86;93.31;101568.09;5265691;28;20082;-70
2023/05/21 05:30:00;;;;;;;6.87;6.17;;;;;;;12.89;93.32;101572.44;5265559;28;20025;-69
2023/05/21 05:32:31;;;;;;;10.60;6.53;;;;;;;12.98;93.33;101561.91;5265581;28;20037;-69
2023/05/21 05:35:03;;;;;;;7.13;6.27;;;;;;;13.07;93.35;101567.03;5247610;28;20041;-68
2023/05/21 05:37:35;;;;;;;10.30;6.60;;;;;;;13.11;92.50;101576.59;5265439;28;20383;-69
2023/05/21 05:40:06;;;;;;;9.53;6.73;;;;;;;13.17;92.52;101577.41;5265345;28;20418;-70
2023/05/21 05:42:38;;;;;;;9.60;6.00;;;;;;;13.18;92.10;101573.91;5230870;28;20056;-69
2023/05/21 05:45:10;;;;;;;8.60;6.87;;;;;;;13.32;92.72;101570.28;5265170;28;20457;-69
2023/05/21 05:47:41;;;;;;;9.85;6.15;;;;;;;13.37;91.57;101578.06;5265237;28;20032;-69
2023/05/21 05:50:13;;;;;;;8.37;6.67;;;;;;;13.46;91.18;101574.50;5264716;28;20029;-70
2023/05/21 05:52:44;;;;;;;8.63;6.77;;;;;;;13.50;91.26;101576.19;5265099;28;20033;-68
2023/05/21 05:55:16;;;;;;;10.33;7.30;;;;;;;13.59;91.14;101575.22;5247147;28;20366;-68
2023/05/21 05:57:47;;;;;;;11.05;6.32;;;;;;;13.63;89.70;101575.13;5265052;28;20029;-70
2023/05/21 06:00:19;;;;;;;9.97;6.93;;;;;;;13.68;89.52;101567.22;5264997;28;20029;-70
2023/05/21 06:02:50;;;;;;;8.37;6.57;;;;;;;13.74;88.86;101571.53;5265250;28;20060;-70
2023/05/21 06:05:22;;;;;;;8.37;7.00;;;;;;;13.84;88.76;101570.50;5264816;28;20033;-69
2023/05/21 06:07:53;;;;;;;10.00;6.73;;;;;;;13.99;88.40;101578.16;5264530;28;20028;-69
2023/05/21 06:10:24;;;;;;;12.43;7.60;;;;;;;14.02;88.16;101577.22;5263584;28;20523;-69
2023/05/21 06:12:56;;;;;;;8.10;6.87;;;;;;;14.17;87.30;101577.00;5264602;28;20110;-69
2023/05/21 06:15:27;;;;;;;7.93;6.73;;;;;;;14.31;86.27;101574.19;5265034;28;20426;-68
2023/05/21 06:17:59;;;;;;;10.77;6.70;;;;;;;14.31;86.50;101568.94;5264314;28;20503;-69
2023/05/21 06:20:30;;;;;;;7.20;6.50;;;;;;;14.35;86.32;101570.63;5264737;28;20353;-68
2023/05/21 06:23:02;;;;;;;9.97;7.33;;;;;;;14.41;86.10;101575.75;5264145;28;20040;-69
2023/05/21 06:25:33;;;;;;;10.57;7.13;;;;;;;14.52;85.61;101582.59;5264458;28;20060;-68
2023/05/21 06:28:04;;;;;;;7.77;6.40;;;;;;;14.66;85.39;101577.16;5263890;28;20029;-69
2023/05/21 06:30:36;;;;;;;7.87;7.03;;;;;;;14.71;84.74;101577.94;5263142;28;20550;-68
2023/05/21 06:33:07;;;;;;;8.30;6.40;;;;;;;14.77;83.93;101573.44;5264371;28;20459;-71
2023/05/21 06:35:39;;;;;;;8.60;7.23;;;;;;;14.93;83.44;101579.28;5264077;28;20119;-68
2023/05/21 06:38:10;;;;;;;8.03;7.23;;;;;;;14.92;82.82;101581.94;5263168;28;20371;-68
2023/05/21 06:40:43;;;;;;;9.43;6.90;;;;;;;14.85;83.22;101575.06;5263907;28;20480;-70
2023/05/21 06:43:14;;;;;;;8.77;6.53;;;;;;;15.17;82.86;101568.38;5263695;28;20068;-69
2023/05/21 06:45:46;;;;;;;8.93;6.47;;;;;;;15.13;81.83;101571.03;5264018;28;20052;-69
2023/05/21 06:48:17;;;;;;;9.67;6.27;;;;;;;15.31;82.01;101580.31;5264026;28;20060;-69
2023/05/21 06:50:48;;;;;;;10.83;6.93;;;;;;;15.49;80.64;101576.44;5263700;28;20040;-69
2023/05/21 06:53:20;;;;;;;7.13;6.43;;;;;;;15.65;80.65;101578.78;5263595;28;20087;-70
2023/05/21 06:55:52;;;;;;;7.93;6.33;;;;;;;15.85;79.52;101576.59;5263845;28;20456;-69
2023/05/21 06:58:24;;;;;;;8.15;6.75;;;;;;;15.81;78.67;101571.44;5264025;28;20029;-70
2023/05/21 07:00:56;;;;;;;10.95;7.22;;;;;;;15.99;79.24;101573.66;5262557;28;20040;-69
2023/05/21 07:03:28;;;;;;;9.32;7.18;;;;;;;16.09;78.09;101562.94;5258633;28;20044;-70
2023/05/21 07:05:59;;;;;;;8.13;7.10;;;;;;;16.07;78.16;101569.97;5260999;28;20136;-69
2023/05/21 07:08:31;;;;;;;10.47;7.33;;;;;;;16.03;77.31;101559.56;5264612;28;20052;-70
2023/05/21 07:11:02;;;;;;;8.90;7.17;;;;;;;16.28;77.16;101560.75;5266839;28;20112;-68
2023/05/21 07:13:35;;;;;;;8.83;7.03;;;;;;;16.17;76.89;101556.56;5261615;28;20033;-70
2023/05/21 07:16:07;;;;;;;;;;;;;;;16.64;76.95;101550.19;5249065;28;20108;-69
2023/05/21 07:18:38;;;;;;;11.75;6.95;;;;;;;16.77;76.15;101547.16;5242735;28;19916;-71
2023/05/21 07:21:10;;;;;;;8.97;7.03;;;;;;;16.92;75.87;101550.31;5255452;28;20037;-70
2023/05/21 07:23:41;;;;;;;8.13;6.80;;;;;;;17.05;74.63;101553.50;5262875;28;20526;-73
2023/05/21 07:26:12;;;;;;;8.00;6.70;;;;;;;17.33;74.82;101555.38;5262772;28;20033;-70
2023/05/21 07:28:44;;;;;;;8.93;6.67;;;;;;;17.31;74.16;101553.63;5262014;28;20031;-70
2023/05/21 07:31:15;;;;;;;13.77;7.50;;;;;;;17.16;73.02;101554.06;5261184;28;20029;-71
2023/05/21 07:33:47;;;;;;;10.53;7.33;;;;;;;16.99;72.87;101551.06;5258652;28;20033;-72
2023/05/21 07:36:18;;;;;;;11.50;7.13;;;;;;;16.91;74.41;101556.53;5280898;28;20036;-70
2023/05/21 07:38:50;;;;;;;11.50;7.50;;;;;;;16.97;76.27;101547.56;5262102;28;20055;-70
2023/05/21 07:41:21;;;;;;;7.67;6.80;;;;;;;17.15;74.50;101549.72;5260382;28;20128;-69
2023/05/21 07:43:52;;;;;;;8.67;7.77;;;;;;;17.07;72.85;101547.28;5261206;28;20084;-69
2023/05/21 07:46:24;;;;;;;9.57;6.70;;;;;;;17.26;73.12;101557.31;5262473;28;20025;-70
2023/05/21 07:48:55;;;;;;;11.93;7.30;;;;;;;17.56;73.29;101552.06;5261092;28;20476;-69
2023/05/21 07:51:27;;;;;;;8.90;6.60;;;;;;;17.61;71.31;101544.88;5261604;28;20021;-69
2023/05/21 07:53:58;;;;;;;8.53;7.13;;;;;;;17.91;73.23;101542.25;5261527;28;20029;-70
2023/05/21 07:56:31;;;;;;;7.80;6.70;;;;;;;18.05;71.07;101547.94;5261147;28;20043;-69
2023/05/21 07:59:02;;;;;;;10.98;7.32;;;;;;;18.07;69.57;101550.53;5260179;28;20029;-70
2023/05/21 08:01:36;;;;;;;8.40;7.23;;;;;;;18.00;70.34;101549.84;5261282;28;20037;-70
2023/05/21 08:04:07;;;;;;;10.50;7.68;;;;;;;17.74;70.50;101548.88;5258269;28;20119;-71
2023/05/21 08:06:39;;;;;;;10.75;7.22;;;;;;;17.76;71.98;101551.44;5261888;28;20117;-70
2023/05/21 08:09:11;;;;;;;8.57;7.77;;;;;;;17.97;71.67;101549.97;5275658;28;20405;-69
2023/05/21 08:11:42;;;;;;;10.38;7.45;;;;;;;18.24;71.81;101548.22;5276649;28;20478;-70
2023/05/21 08:14:13;;;;;;;12.50;7.30;;;;;;;18.34;69.42;101547.00;5265812;28;20403;-69
2023/05/21 08:16:45;;;;;;;10.63;7.57;;;;;;;18.37;69.88;101544.25;5263139;28;20028;-70
2023/05/21 08:19:17;;;;;;;8.55;7.35;;;;;;;18.59;68.77;101544.41;5259843;28;20028;-69
2023/05/21 08:21:48;;;;;;;11.27;8.37;;;;;;;18.51;69.12;101551.69;5260900;28;20068;-70
2023/05/21 08:24:19;;;;;;;8.10;7.30;;;;;;;18.55;69.96;101547.19;5260300;28;20033;-70
2023/05/21 08:26:51;;;;;;;9.50;8.30;;;;;;;18.91;67.74;101545.06;5261759;28;20090;-68
2023/05/21 08:29:22;;;;;;;10.17;7.70;;;;;;;19.08;67.62;101539.19;5261504;28;20025;-69
2023/05/21 08:31:54;;;;;;;11.60;8.20;;;;;;;19.20;66.32;101544.94;5262360;28;20056;-68
2023/05/21 08:34:25;;;;;;;8.97;8.07;;;;;;;19.30;65.49;101539.28;5277282;28;20159;-68
2023/05/21 08:36:56;;;;;;;9.70;7.77;;;;;;;19.22;66.47;101532.53;5261006;28;20056;-68
2023/05/21 08:39:28;;;;;;;10.13;7.97;;;;;;;19.42;66.90;101534.44;5261620;28;20060;-69
2023/05/21 08:42:13;;;;;;;9.83;8.83;;;;;;;19.17;65.62;101530.03;5277408;28;20049;-70
2023/05/21 08:44:50;;;;;;;9.82;7.90;;;;;;;19.43;67.48;101534.38;5261642;28;20028;-68
2023/05/21 08:47:26;;;;;;;10.70;7.88;;;;;;;19.56;65.76;101539.19;5262142;28;20037;-68
2023/05/21 08:49:59;;;;;;;12.25;8.30;;;;;;;19.60;65.18;101535.50;5261362;28;20037;-69
2023/05/21 08:52:31;;;;;;;9.07;8.18;;;;;;;19.45;63.79;101531.69;5264222;28;20076;-69
2023/05/21 08:55:04;;;;;;;9.55;8.57;;;;;;;19.39;64.98;101535.41;5265593;28;20037;-69
2023/05/21 08:57:36;;;;;;;8.25;7.45;;;;;;;19.49;66.83;101530.63;5265881;28;20083;-69
2023/05/21 09:00:08;;;;;;;9.68;8.13;;;;;;;19.87;66.03;101525.66;5265362;28;20491;-71
2023/05/21 09:02:42;;;;;;;11.18;8.02;;;;;;;19.79;64.07;101525.97;5265820;28;20419;-69
2023/05/21 09:05:14;;;;;;;11.48;8.65;;;;;;;19.93;63.14;101513.97;5280372;28;20463;-70
2023/05/21 09:08:02;;;;;;;9.25;8.27;;;;;;;20.07;63.57;101524.00;5266022;28;20029;-70
2023/05/21 09:10:37;;;;;;;11.32;8.93;;;;;;;19.78;62.68;101532.16;5265593;28;20452;-68
2023/05/21 09:13:09;;;;;;;13.73;8.73;;;;;;;19.88;64.08;101524.72;5265528;28;20480;-68
2023/05/21 09:15:40;;;;;;;9.98;8.57;;;;;;;20.10;64.15;101522.06;5265022;28;20071;-70
2023/05/21 09:18:13;;;;;;;9.73;8.47;;;;;;;20.40;62.80;101521.72;5265763;28;20388;-68
2023/05/21 09:20:44;;;;;;;;;;;;;;;20.94;61.73;101530.00;5298081;28;20085;-69
2023/05/21 09:23:16;;;;;;;10.40;7.83;;;;;;;20.63;63.20;101522.53;5264899;28;19974;-70
2023/05/21 09:25:50;;;;;;;11.10;8.55;;;;;;;20.54;61.04;101529.97;5264835;28;20490;-69
2023/05/21 09:28:22;;;;;;;9.13;8.20;;;;;;;20.45;60.84;101529.47;5265587;28;20035;-68
2023/05/21 09:30:53;;;;;;;10.43;8.20;;;;;;;20.69;61.44;101531.09;5265010;28;20024;-68
2023/05/21 09:33:26;;;;;;;9.80;7.80;;;;;;;20.74;62.20;101525.63;5265056;28;20029;-70
2023/05/21 09:35:57;;;;;;;10.38;9.02;;;;;;;20.59;61.12;101522.66;5264292;28;20067;-70
2023/05/21 09:38:29;;;;;;;9.43;7.93;;;;;;;21.08;59.72;101524.09;5263610;28;20068;-68
2023/05/21 09:41:04;;;;;;;9.20;8.30;;;;;;;21.10;59.67;101525.75;5264830;28;20025;-69
2023/05/21 09:43:36;;;;;;;9.30;8.10;;;;;;;20.79;59.56;101520.97;5262587;28;20041;-70
2023/05/21 09:46:07;;;;;;;10.32;8.77;;;;;;;20.79;58.92;101513.00;5263741;28;20061;-69
2023/05/21 09:48:42;;;;;;;10.27;8.87;;;;;;;21.06;60.28;101512.72;5262934;28;20460;-68
2023/05/21 09:51:18;;;;;;;10.23;7.93;;;;;;;21.63;60.57;101510.09;5264768;28;20444;-70
2023/05/21 09:53:54;;;;;;;9.45;8.45;;;;;;;21.91;56.97;101512.28;5258179;28;20098;-70
2023/05/21 09:56:29;;;;;;;11.45;8.07;;;;;;;22.97;54.68;101516.66;5258540;28;20040;-69
2023/05/21 09:59:05;;;;;;;10.02;8.57;;;;;;;23.57;50.17;101518.75;5264145;28;20029;-69
2023/05/21 10:01:37;;;;;;;9.00;7.65;;;;;;;24.36;48.90;101508.97;5264675;28;20025;-69
2023/05/21 10:04:08;;;;;;;;;;;;;;;25.87;45.56;101512.06;5278799;28;20036;-69
2023/05/21 10:06:42;;;;;;;13.13;9.00;;;;;;;24.21;47.66;101500.94;5265297;28;20285;-68
2023/05/21 10:09:14;;;;;;;10.75;8.27;;;;;;;24.42;47.14;101497.06;5264418;28;20033;-69
2023/05/21 10:11:48;;;;;;;9.55;7.55;;;;;;;24.35;48.70;101493.91;5264715;28;20110;-68
2023/05/21 10:14:22;;;;;;;18.92;8.73;;;;;;;24.27;47.83;101485.50;5264462;28;20111;-69
2023/05/21 10:16:53;;;;;;;16.30;8.60;;;;;;;23.07;50.66;101491.34;5264432;28;20032;-69
2023/05/21 10:19:26;;;;;;;11.13;9.80;;;;;;;22.74;51.83;101480.69;5264487;28;20037;-69
2023/05/21 10:22:00;;;;;;;10.35;8.75;;;;;;;24.34;51.19;101481.53;5264182;28;20048;-69
2023/05/21 10:24:33;;;;;;;10.32;8.65;;;;;;;25.22;45.79;101479.69;5278873;28;20044;-69
2023/05/21 10:27:06;;;;;;;13.07;8.82;;;;;;;24.73;47.73;101486.28;5264175;28;20416;-69
2023/05/21 10:29:39;;;;;;;10.05;8.05;;;;;;;25.51;45.05;101487.66;5263252;28;20491;-71
2023/05/21 10:32:15;;;;;;;9.85;8.27;;;;;;;26.62;45.10;101469.56;5263101;28;20041;-69
2023/05/21 10:34:47;;;;;;;11.25;8.45;;;;;;;26.90;41.43;101468.53;5263559;28;20384;-68
2023/05/21 10:37:23;;;;;;;11.25;8.95;;;;;;;26.96;41.71;101483.25;5263962;28;20037;-68
2023/05/21 10:39:55;;;;;;;10.95;9.57;;;;;;;28.15;39.01;101470.09;5262127;28;20025;-69
2023/05/21 10:42:29;;;;;;;12.65;8.52;;;;;;;28.02;39.13;101480.06;5262514;28;20073;-68
2023/05/21 10:45:10;;;;;;;12.32;8.65;;;;;;;27.25;40.98;101469.63;5261809;28;20110;-68
2023/05/21 10:47:56;;;;;;;12.35;9.02;;;;;;;28.48;39.97;101463.13;5262765;28;20147;-70
2023/05/21 10:50:55;;;;;;;11.23;8.00;;;;;;;28.78;38.14;101460.84;5263760;28;20106;-69
2023/05/21 10:53:44;;;;;;;13.18;9.38;;;;;;;29.10;37.76;101460.94;5263341;28;20115;-69
2023/05/21 10:56:41;;;;;;;11.13;10.10;;;;;;;30.10;35.68;101451.88;5262774;28;20064;-69
2023/05/21 10:59:24;;;;;;;11.23;9.30;;;;;;;29.85;34.70;101445.03;5263094;28;20021;-69
2023/05/21 11:01:56;;;;;;;8.73;7.82;;;;;;;30.81;34.71;101441.22;5262133;28;20029;-69
2023/05/21 11:04:28;;;;;;;10.98;9.10;;;;;;;30.46;34.12;101437.13;5258968;28;20030;-68
2023/05/21 11:07:00;;;;;;;9.40;8.32;;;;;;;28.95;37.03;101444.25;5263200;28;20021;-69
2023/05/21 11:09:32;;;;;;;10.18;9.18;;;;;;;28.54;36.74;101441.16;5262402;28;20122;-68
2023/05/21 11:12:04;;;;;;;11.45;9.55;;;;;;;28.62;36.59;101431.69;5262822;28;20087;-69
2023/05/21 11:14:36;;;;;;;;;;;;;;;30.45;34.33;101424.63;5262198;28;20388;-69
2023/05/21 11:17:08;;;;;;;12.70;9.82;;;;;;;27.98;37.35;101415.13;5263324;28;19995;-69
2023/05/21 11:19:42;;;;;;;12.45;10.73;;;;;;;27.42;39.49;101420.25;5262777;28;20120;-69
2023/05/21 11:22:24;;;;;;;12.15;10.93;;;;;;;27.82;37.95;101409.19;5262899;28;20040;-69
2023/05/21 11:25:00;;;;;;;15.70;10.68;;;;;;;30.34;35.71;101413.94;5262408;28;20392;-70
2023/05/21 11:27:35;;;;;;;15.85;10.88;;;;;;;31.09;34.77;101411.88;5262137;28;20116;-69
2023/05/21 11:30:08;;;;;;;12.05;10.85;;;;;;;31.02;32.33;101410.72;5262580;28;20029;-69
2023/05/21 11:33:12;;;;;;;12.10;10.88;;;;;;;32.11;31.94;101395.28;5263317;28;20090;-70
2023/05/21 11:35:43;;;;;;;14.65;11.43;;;;;;;31.40;31.71;101401.84;5262185;28;20045;-69
2023/05/21 11:38:16;;;;;;;11.35;9.60;;;;;;;30.89;33.21;101400.16;5263104;28;20044;-69
2023/05/21 11:40:54;;;;;;;14.38;11.20;;;;;;;31.53;31.51;101404.28;5262861;28;20459;-69
2023/05/21 11:43:26;;;;;;;12.45;11.23;;;;;;;32.64;30.26;101398.41;5263044;28;20484;-69
2023/05/21 11:45:58;;;;;;;13.27;11.82;;;;;;;33.08;30.50;101391.31;5262383;28;20036;-67
2023/05/21 11:48:31;;;;;;;14.30;12.80;;;;;;;33.54;29.70;101395.84;5263143;28;20025;-68